createdAt,value
2019-03-28T00:00:31.148Z,98170.22
2019-03-28T00:03:00.728Z,98171.64
2019-03-28T00:05:30.354Z,98167.23
2019-03-28T00:07:59.941Z,98160.36
2019-03-28T00:10:29.526Z,98153.21
2019-03-28T00:12:59.134Z,98150.86
2019-03-28T00:15:29.740Z,98144.16
2019-03-28T00:17:59.358Z,98147.98
2019-03-28T00:20:28.976Z,98146.36
2019-03-28T00:23:16.126Z,98150.74
2019-03-28T00:25:45.718Z,98155.56
2019-03-28T00:28:15.301Z,98153.58
2019-03-28T00:30:44.926Z,98147.66
2019-03-28T00:33:14.533Z,98142.77
2019-03-28T00:35:44.239Z,98142.77
2019-03-28T00:38:13.853Z,98147.20
2019-03-28T00:40:43.441Z,98147.86
2019-03-28T00:43:13.057Z,98146.52
2019-03-28T00:45:44.555Z,98150.27
2019-03-28T00:48:13.982Z,98139.40
2019-03-28T00:50:43.586Z,98140.52
2019-03-28T00:53:13.194Z,98146.64
2019-03-28T00:55:42.879Z,98140.52
2019-03-28T00:58:12.481Z,98135.34
2019-03-28T01:00:42.090Z,98142.11
2019-03-28T01:03:11.704Z,98135.92
2019-03-28T01:05:42.191Z,98137.22
2019-03-28T01:08:12.212Z,98133.37
2019-03-28T01:10:42.285Z,98130.08
2019-03-28T01:13:11.877Z,98133.27
2019-03-28T01:15:41.561Z,98134.78
2019-03-28T01:18:11.151Z,98133.01
2019-03-28T01:20:40.879Z,98135.81
2019-03-28T01:23:10.497Z,98135.99
2019-03-28T01:25:40.086Z,98135.53
2019-03-28T01:28:09.814Z,98133.45
2019-03-28T01:30:39.421Z,98136.19
2019-03-28T01:33:09.010Z,98126.11
2019-03-28T01:35:38.603Z,98130.71
2019-03-28T01:38:08.219Z,98129.16
2019-03-28T01:40:37.801Z,98123.70
2019-03-28T01:43:07.415Z,98128.78
2019-03-28T01:45:37.028Z,98126.59
2019-03-28T01:48:06.657Z,98124.25
2019-03-28T01:50:36.266Z,98117.33
2019-03-28T01:53:05.923Z,98119.70
2019-03-28T01:55:35.585Z,98122.25
2019-03-28T01:58:05.436Z,98120.29
2019-03-28T02:00:35.177Z,98124.73
2019-03-28T02:03:04.877Z,98129.94
2019-03-28T02:05:34.471Z,98127.22
2019-03-28T02:08:04.061Z,98121.44
2019-03-28T02:10:33.675Z,98122.93
2019-03-28T02:13:03.353Z,98112.03
2019-03-28T02:15:32.956Z,98113.73
2019-03-28T02:18:03.288Z,98111.66
2019-03-28T02:20:32.960Z,98114.88
2019-03-28T02:23:02.522Z,98114.75
2019-03-28T02:25:32.204Z,98109.11
2019-03-28T02:28:01.820Z,98114.20
2019-03-28T02:30:33.954Z,98112.76
2019-03-28T02:33:03.575Z,98117.80
2019-03-28T02:35:33.190Z,98107.61
2019-03-28T02:38:02.774Z,98101.84
2019-03-28T02:40:32.418Z,98097.97
2019-03-28T02:43:01.978Z,98104.09
2019-03-28T02:45:31.732Z,98101.02
2019-03-28T02:48:01.782Z,98103.77
2019-03-28T02:50:31.621Z,98108.89
2019-03-28T02:53:01.241Z,98111.41
2019-03-28T02:55:30.833Z,98107.09
2019-03-28T02:58:00.416Z,98104.58
2019-03-28T03:00:30.169Z,98106.44
2019-03-28T03:02:59.782Z,98105.49
2019-03-28T03:05:29.439Z,98106.55
2019-03-28T03:07:59.126Z,98111.90
2019-03-28T03:10:28.813Z,98111.09
2019-03-28T03:12:58.408Z,98111.45
2019-03-28T03:15:27.991Z,98112.22
2019-03-28T03:17:57.597Z,98109.42
2019-03-28T03:20:27.213Z,98114.54
2019-03-28T03:22:56.808Z,98117.23
2019-03-28T03:25:26.427Z,98108.00
2019-03-28T03:27:58.347Z,98114.75
2019-03-28T03:30:27.333Z,98116.77
2019-03-28T03:32:56.935Z,98121.42
2019-03-28T03:35:26.567Z,98118.91
2019-03-28T03:37:56.298Z,98118.47
2019-03-28T03:40:25.959Z,98114.08
2019-03-28T03:42:56.786Z,98116.06
2019-03-28T03:45:26.801Z,98119.97
2019-03-28T03:47:56.487Z,98122.78
2019-03-28T03:50:28.832Z,98122.55
2019-03-28T03:52:58.704Z,98124.84
2019-03-28T03:55:28.362Z,98128.36
2019-03-28T03:58:14.441Z,98122.59
2019-03-28T04:00:34.836Z,98127.35
2019-03-28T04:03:04.758Z,98128.88
2019-03-28T04:05:34.382Z,98131.80
2019-03-28T04:08:03.998Z,98128.14
2019-03-28T04:10:33.598Z,98129.91
2019-03-28T04:13:03.213Z,98123.25
2019-03-28T04:15:32.839Z,98129.07
2019-03-28T04:18:02.461Z,98125.46
2019-03-28T04:20:32.064Z,98117.67
2019-03-28T04:23:01.663Z,98122.30
2019-03-28T04:25:31.260Z,98120.22
2019-03-28T04:28:01.050Z,98124.52
2019-03-28T04:30:30.639Z,98116.44
2019-03-28T04:33:00.290Z,98117.38
2019-03-28T04:35:29.974Z,98120.56
2019-03-28T04:37:59.809Z,98119.47
2019-03-28T04:40:29.422Z,98116.23
2019-03-28T04:42:59.029Z,98125.30
2019-03-28T04:45:28.732Z,98127.31
2019-03-28T04:47:58.326Z,98124.58
2019-03-28T04:50:28.050Z,98121.05
2019-03-28T04:52:57.640Z,98114.16
2019-03-28T04:55:27.262Z,98120.56
2019-03-28T04:57:56.876Z,98118.61
2019-03-28T05:00:26.555Z,98121.00
2019-03-28T05:02:56.177Z,98130.64
2019-03-28T05:05:25.787Z,98126.80
2019-03-28T05:07:55.480Z,98123.38
2019-03-28T05:10:25.094Z,98127.45
2019-03-28T05:12:54.711Z,98134.56
2019-03-28T05:15:24.407Z,98133.94
2019-03-28T05:17:54.018Z,98132.27
2019-03-28T05:20:23.697Z,98123.81
2019-03-28T05:22:53.317Z,98127.45
2019-03-28T05:25:22.934Z,98127.89
2019-03-28T05:27:52.626Z,98126.98
2019-03-28T05:30:22.235Z,98129.65
2019-03-28T05:32:51.843Z,98124.27
2019-03-28T05:35:21.532Z,98129.65
2019-03-28T05:37:51.121Z,98137.05
2019-03-28T05:40:22.854Z,98139.55
2019-03-28T05:42:52.139Z,98142.66
2019-03-28T05:45:21.745Z,98140.71
2019-03-28T05:47:51.333Z,98151.63
2019-03-28T05:50:20.941Z,98150.50
2019-03-28T05:52:50.530Z,98149.82
2019-03-28T05:55:20.150Z,98153.14
2019-03-28T05:57:49.966Z,98162.25
2019-03-28T06:00:19.760Z,98161.38
2019-03-28T06:02:50.020Z,98157.37
2019-03-28T06:05:20.017Z,98155.41
2019-03-28T06:07:49.630Z,98152.25
2019-03-28T06:10:20.191Z,98156.51
2019-03-28T06:12:49.804Z,98157.42
2019-03-28T06:15:19.465Z,98159.51
2019-03-28T06:17:49.076Z,98164.23
2019-03-28T06:20:18.900Z,98166.83
2019-03-28T06:22:48.521Z,98163.39
2019-03-28T06:25:18.130Z,98167.41
2019-03-28T06:27:47.715Z,98168.56
2019-03-28T06:30:18.340Z,98172.98
2019-03-28T06:32:47.995Z,98166.05
2019-03-28T06:35:18.300Z,98171.66
2019-03-28T06:37:51.180Z,98177.53
2019-03-28T06:40:19.458Z,98172.13
2019-03-28T06:42:49.070Z,98170.68
2019-03-28T06:45:18.659Z,98163.97
2019-03-28T06:47:48.275Z,98169.51
2019-03-28T06:50:18.096Z,98164.36
2019-03-28T06:52:47.702Z,98165.77
2019-03-28T06:55:17.328Z,98163.70
2019-03-28T06:57:46.921Z,98164.28
2019-03-28T07:00:17.821Z,98166.33
2019-03-28T07:02:47.434Z,98172.30
2019-03-28T07:05:17.558Z,98174.39
2019-03-28T07:07:47.242Z,98171.76
2019-03-28T07:10:18.053Z,98178.39
2019-03-28T07:12:47.662Z,98168.12
2019-03-28T07:15:17.421Z,98168.25
2019-03-28T07:17:47.038Z,98165.83
2019-03-28T07:20:18.301Z,98164.80
2019-03-28T07:22:47.906Z,98167.23
2019-03-28T07:25:17.516Z,98165.19
2019-03-28T07:27:47.235Z,98167.41
2019-03-28T07:30:17.721Z,98170.09
2019-03-28T07:32:47.415Z,98169.58
2019-03-28T07:35:17.040Z,98171.03
2019-03-28T07:37:46.721Z,98168.87
2019-03-28T07:40:16.779Z,98168.55
2019-03-28T07:42:46.455Z,98173.20
2019-03-28T07:45:16.462Z,98171.58
2019-03-28T07:47:46.100Z,98175.37
2019-03-28T07:50:16.377Z,98169.46
2019-03-28T07:52:46.149Z,98170.20
2019-03-28T07:55:16.681Z,98172.02
2019-03-28T07:57:46.543Z,98178.33
2019-03-28T08:00:18.037Z,98172.69
2019-03-28T08:02:47.666Z,98177.22
2019-03-28T08:05:17.563Z,98176.46
2019-03-28T08:07:47.364Z,98173.92
2019-03-28T08:10:17.435Z,98172.77
2019-03-28T08:12:47.098Z,98175.97
2019-03-28T08:15:18.462Z,98175.55
2019-03-28T08:17:48.070Z,98183.13
2019-03-28T08:20:18.494Z,98176.75
2019-03-28T08:22:48.176Z,98174.36
2019-03-28T08:25:17.958Z,98178.16
2019-03-28T08:27:47.608Z,98174.05
2019-03-28T08:30:19.665Z,98173.45
2019-03-28T08:32:49.350Z,98172.53
2019-03-28T08:35:18.951Z,98176.08
2019-03-28T08:37:48.730Z,98175.12
2019-03-28T08:40:39.614Z,98179.66
2019-03-28T08:43:09.236Z,98172.20
2019-03-28T08:45:38.860Z,98172.36
2019-03-28T08:48:08.631Z,98174.92
2019-03-28T08:50:38.357Z,98169.28
2019-03-28T08:53:07.916Z,98175.66
2019-03-28T08:55:37.608Z,98177.23
2019-03-28T08:58:08.099Z,98174.62
2019-03-28T09:03:25.110Z,98172.16
2019-03-28T09:05:54.804Z,98169.55
2019-03-28T09:08:24.400Z,98161.39
2019-03-28T09:10:54.024Z,98166.25
2019-03-28T09:13:23.730Z,98162.36
2019-03-28T09:16:11.895Z,98157.02
2019-03-28T09:21:28.747Z,98148.06
2019-03-28T09:23:58.431Z,98151.02
2019-03-28T09:26:28.062Z,98150.92
2019-03-28T09:28:57.691Z,98148.01
2019-03-28T09:31:27.453Z,98144.33
2019-03-28T09:33:57.086Z,98145.55
2019-03-28T09:36:26.701Z,98146.12
2019-03-28T09:38:56.325Z,98145.33
2019-03-28T09:41:25.993Z,98140.14
2019-03-28T09:43:56.073Z,98138.80
2019-03-28T09:46:25.698Z,98142.82
2019-03-28T09:48:55.492Z,98142.08
2019-03-28T09:51:25.194Z,98133.91
2019-03-28T09:53:54.862Z,98134.81
2019-03-28T09:56:24.480Z,98140.84
2019-03-28T09:58:54.075Z,98138.45
2019-03-28T10:01:23.706Z,98144.09
2019-03-28T10:03:53.300Z,98139.42
2019-03-28T10:06:22.960Z,98131.23
2019-03-28T10:08:52.523Z,98132.73
2019-03-28T10:11:22.143Z,98127.00
2019-03-28T10:13:51.740Z,98128.20
2019-03-28T10:16:21.399Z,98121.70
2019-03-28T10:18:50.997Z,98121.67
2019-03-28T10:21:20.689Z,98125.17
2019-03-28T10:23:50.303Z,98122.33
2019-03-28T10:26:19.934Z,98121.20
2019-03-28T10:28:49.602Z,98120.72
2019-03-28T10:31:19.234Z,98119.39
2019-03-28T10:33:48.921Z,98119.20
2019-03-28T10:36:18.518Z,98120.05
2019-03-28T10:38:48.146Z,98120.06
2019-03-28T10:41:17.811Z,98108.83
2019-03-28T10:43:47.410Z,98111.98
2019-03-28T10:46:17.038Z,98112.69
2019-03-28T10:48:46.631Z,98119.04
2019-03-28T10:51:16.259Z,98117.95
2019-03-28T10:53:45.892Z,98114.55
2019-03-28T10:56:21.988Z,98110.06
2019-03-28T10:58:46.833Z,98113.64
2019-03-28T11:01:21.552Z,98106.95
2019-03-28T11:03:47.777Z,98107.27
2019-03-28T11:06:17.400Z,98105.11
2019-03-28T11:08:47.018Z,98101.77
2019-03-28T11:11:16.713Z,98100.59
2019-03-28T11:13:46.312Z,98101.27
2019-03-28T11:16:15.931Z,98099.77
2019-03-28T11:18:45.555Z,98099.92
2019-03-28T11:21:15.198Z,98097.56
2019-03-28T11:23:44.819Z,98099.73
2019-03-28T11:26:14.420Z,98094.05
2019-03-28T11:28:44.055Z,98097.25
2019-03-28T11:31:13.650Z,98095.47
2019-03-28T11:33:43.248Z,98094.37
2019-03-28T11:36:12.944Z,98094.36
2019-03-28T11:38:42.538Z,98087.66
2019-03-28T11:41:12.232Z,98084.81
2019-03-28T11:43:41.875Z,98086.16
2019-03-28T11:46:11.512Z,98081.81
2019-03-28T11:48:41.194Z,98080.78
2019-03-28T11:51:10.818Z,98075.69
2019-03-28T11:53:40.410Z,98072.52
2019-03-28T11:56:10.033Z,98073.39
2019-03-28T11:58:39.633Z,98074.73
2019-03-28T12:01:09.345Z,98076.75
2019-03-28T12:03:39.049Z,98072.43
2019-03-28T12:06:08.671Z,98060.96
2019-03-28T12:08:38.263Z,98063.18
2019-03-28T12:11:07.877Z,98051.63
2019-03-28T12:13:44.812Z,98050.28
2019-03-28T12:16:08.836Z,98049.20
2019-03-28T12:18:38.455Z,98053.09
2019-03-28T12:21:08.049Z,98048.71
2019-03-28T12:23:37.672Z,98051.80
2019-03-28T12:26:07.297Z,98043.45
2019-03-28T12:28:36.964Z,98049.46
2019-03-28T12:31:06.587Z,98046.38
2019-03-28T12:33:36.180Z,98034.99
2019-03-28T12:36:05.870Z,98036.97
2019-03-28T12:38:35.501Z,98032.62
2019-03-28T12:41:05.755Z,98029.55
2019-03-28T12:43:35.380Z,98032.09
2019-03-28T12:46:05.036Z,98027.45
2019-03-28T12:48:34.654Z,98020.84
2019-03-28T12:51:04.352Z,98015.82
2019-03-28T12:53:33.946Z,98012.20
2019-03-28T12:56:03.567Z,98009.95
2019-03-28T12:58:33.194Z,98007.76
2019-03-28T13:01:02.809Z,97998.67
2019-03-28T13:03:44.915Z,97998.64
2019-03-28T13:06:03.747Z,97994.30
2019-03-28T13:08:33.359Z,97999.48
2019-03-28T13:11:02.978Z,97993.68
2019-03-28T13:13:32.586Z,97994.40
2019-03-28T13:16:02.249Z,97994.14
2019-03-28T13:18:31.872Z,97985.91
2019-03-28T13:21:12.804Z,97983.07
2019-03-28T13:23:32.804Z,97978.27
2019-03-28T13:26:02.429Z,97978.37
2019-03-28T13:28:32.018Z,97980.99
2019-03-28T13:31:01.636Z,97979.02
2019-03-28T13:33:31.232Z,97977.16
2019-03-28T13:36:00.857Z,97977.52
2019-03-28T13:38:30.450Z,97972.48
2019-03-28T13:41:00.075Z,97960.12
2019-03-28T13:43:30.589Z,97963.97
2019-03-28T13:46:00.370Z,97963.20
2019-03-28T13:48:29.981Z,97955.97
2019-03-28T13:50:59.642Z,97953.13
2019-03-28T13:53:39.418Z,97955.08
2019-03-28T13:56:00.621Z,97953.53
2019-03-28T13:58:30.213Z,97951.17
2019-03-28T14:00:59.897Z,97953.59
2019-03-28T14:03:29.519Z,97947.80
2019-03-28T14:05:59.112Z,97938.62
2019-03-28T14:08:28.812Z,97935.38
2019-03-28T14:10:58.406Z,97930.97
2019-03-28T14:13:28.137Z,97925.25
2019-03-28T14:15:58.270Z,97920.06
2019-03-28T14:18:27.966Z,97912.55
2019-03-28T14:20:57.646Z,97912.16
2019-03-28T14:23:27.313Z,97909.05
2019-03-28T14:25:56.907Z,97899.23
2019-03-28T14:28:26.528Z,97906.74
2019-03-28T14:30:56.118Z,97898.10
2019-03-28T14:33:27.310Z,97905.84
2019-03-28T14:35:57.023Z,97898.70
2019-03-28T14:38:26.645Z,97899.78
2019-03-28T14:40:58.369Z,97897.94
2019-03-28T14:43:27.592Z,97897.69
2019-03-28T14:45:57.182Z,97894.58
2019-03-28T14:48:26.775Z,97894.76
2019-03-28T14:50:56.541Z,97897.27
2019-03-28T14:53:26.135Z,97895.25
2019-03-28T14:55:56.465Z,97891.22
2019-03-28T14:58:28.096Z,97888.53
2019-03-28T15:00:57.691Z,97893.44
2019-03-28T15:03:27.801Z,97892.33
2019-03-28T15:05:58.589Z,97885.02
2019-03-28T15:08:28.270Z,97882.82
2019-03-28T15:10:57.888Z,97885.73
2019-03-28T15:13:27.512Z,97890.53
2019-03-28T15:15:57.174Z,97889.50
2019-03-28T15:18:26.790Z,97894.44
2019-03-28T15:20:56.382Z,97892.25
2019-03-28T15:23:25.997Z,97893.09
2019-03-28T15:25:55.694Z,97899.08
2019-03-28T15:28:25.299Z,97891.95
2019-03-28T15:30:55.723Z,97888.77
2019-03-28T15:33:38.310Z,97887.59
2019-03-28T15:35:56.822Z,97886.97
2019-03-28T15:38:26.443Z,97886.36
2019-03-28T15:40:56.035Z,97885.69
2019-03-28T15:43:25.649Z,97891.10
2019-03-28T15:45:55.271Z,97897.64
2019-03-28T15:48:24.865Z,97902.12
2019-03-28T15:50:54.479Z,97896.92
2019-03-28T15:53:24.103Z,97897.18
2019-03-28T15:55:53.728Z,97903.63
2019-03-28T15:58:23.851Z,97908.97
2019-03-28T16:00:54.187Z,97909.03
2019-03-28T16:03:23.810Z,97918.78
2019-03-28T16:05:58.627Z,97919.82
2019-03-28T16:08:24.746Z,97915.13
2019-03-28T16:10:54.338Z,97916.56
2019-03-28T16:13:23.946Z,97918.08
2019-03-28T16:15:53.608Z,97916.77
2019-03-28T16:18:23.238Z,97918.22
2019-03-28T16:20:53.543Z,97922.49
2019-03-28T16:23:23.203Z,97930.14
2019-03-28T16:25:52.964Z,97929.86
2019-03-28T16:28:22.558Z,97932.37
2019-03-28T16:30:52.250Z,97930.84
2019-03-28T16:33:21.843Z,97942.90
2019-03-28T16:35:51.462Z,97936.45
2019-03-28T16:38:21.056Z,97944.80
2019-03-28T16:40:50.686Z,97951.50
2019-03-28T16:43:20.284Z,97950.83
2019-03-28T16:45:49.903Z,97953.83
2019-03-28T16:48:19.491Z,97955.34
2019-03-28T16:50:49.207Z,97958.63
2019-03-28T16:53:18.872Z,97955.48
2019-03-28T16:55:48.484Z,97959.67
2019-03-28T16:58:18.110Z,97964.88
2019-03-28T17:00:47.709Z,97963.19
2019-03-28T17:03:17.396Z,97963.88
2019-03-28T17:05:47.360Z,97959.87
2019-03-28T17:08:17.792Z,97961.70
2019-03-28T17:10:52.428Z,97960.19
2019-03-28T17:13:22.159Z,97960.69
2019-03-28T17:15:51.938Z,97959.19
2019-03-28T17:18:21.733Z,97963.72
2019-03-28T17:20:51.436Z,97960.55
2019-03-28T17:23:21.355Z,97962.25
2019-03-28T17:25:51.088Z,97968.28
2019-03-28T17:28:20.933Z,97966.61
2019-03-28T17:30:50.532Z,97967.27
2019-03-28T17:33:20.349Z,97967.30
2019-03-28T17:35:49.996Z,97968.45
2019-03-28T17:38:20.370Z,97971.62
2019-03-28T17:40:50.093Z,97974.61
2019-03-28T17:43:19.794Z,97981.45
2019-03-28T17:45:49.626Z,97979.94
2019-03-28T17:48:19.249Z,97979.91
2019-03-28T17:50:48.857Z,97988.64
2019-03-28T17:53:19.522Z,97987.95
2019-03-28T17:55:49.307Z,97995.95
2019-03-28T17:58:18.893Z,97996.92
2019-03-28T18:00:49.091Z,98004.28
2019-03-28T18:03:30.459Z,98003.83
2019-03-28T18:05:58.031Z,98003.52
2019-03-28T18:08:21.336Z,98013.58
2019-03-28T18:10:50.957Z,98015.07
2019-03-28T18:13:20.647Z,98017.41
2019-03-28T18:15:50.240Z,98017.52
2019-03-28T18:18:19.862Z,98020.52
2019-03-28T18:20:49.522Z,98020.68
2019-03-28T18:23:19.143Z,98021.03
2019-03-28T18:25:48.767Z,98026.54
2019-03-28T18:28:18.373Z,98025.23
2019-03-28T18:30:47.995Z,98030.24
2019-03-28T18:33:17.592Z,98031.58
2019-03-28T18:35:47.254Z,98032.95
2019-03-28T18:38:16.874Z,98032.59
2019-03-28T18:40:46.872Z,98030.73
2019-03-28T18:43:16.579Z,98032.86
2019-03-28T18:45:46.261Z,98038.86
2019-03-28T18:48:27.443Z,98044.97
2019-03-28T18:50:47.220Z,98054.50
2019-03-28T18:53:16.815Z,98049.45
2019-03-28T18:55:46.450Z,98057.48
2019-03-28T18:58:16.043Z,98058.59
2019-03-28T19:00:48.061Z,98056.74
2019-03-28T19:03:16.978Z,98058.34
2019-03-28T19:05:46.607Z,98063.91
2019-03-28T19:08:16.198Z,98070.55
2019-03-28T19:10:45.819Z,98065.24
2019-03-28T19:13:15.447Z,98067.69
2019-03-28T19:15:45.061Z,98071.22
2019-03-28T19:18:14.651Z,98065.47
2019-03-28T19:20:44.275Z,98074.73
2019-03-28T19:23:14.441Z,98064.91
2019-03-28T19:25:46.705Z,98069.52
2019-03-28T19:28:27.999Z,98066.75
2019-03-28T19:30:46.717Z,98063.93
2019-03-28T19:33:16.350Z,98064.95
2019-03-28T19:35:47.642Z,98074.86
2019-03-28T19:38:18.153Z,98079.05
2019-03-28T19:40:47.776Z,98079.63
2019-03-28T19:43:20.889Z,98082.06
2019-03-28T19:45:48.992Z,98084.14
2019-03-28T19:48:18.659Z,98083.34
2019-03-28T19:50:48.290Z,98082.53
2019-03-28T19:53:18.222Z,98082.56
2019-03-28T19:55:47.789Z,98080.71
2019-03-28T19:58:17.418Z,98082.66
2019-03-28T20:00:47.009Z,98085.18
2019-03-28T20:03:16.630Z,98089.04
2019-03-28T20:05:48.477Z,98092.44
2019-03-28T20:08:18.303Z,98091.34
2019-03-28T20:10:48.568Z,98096.88
2019-03-28T20:13:18.164Z,98105.22
2019-03-28T20:15:47.939Z,98107.28
2019-03-28T20:18:17.522Z,98107.91
2019-03-28T20:20:47.225Z,98105.89
2019-03-28T20:23:16.852Z,98109.84
2019-03-28T20:25:46.447Z,98110.84
2019-03-28T20:28:16.406Z,98106.56
2019-03-28T20:30:46.153Z,98104.56
2019-03-28T20:33:15.847Z,98113.41
2019-03-28T20:35:45.479Z,98112.16
2019-03-28T20:38:15.091Z,98106.23
2019-03-28T20:40:44.763Z,98119.23
2019-03-28T20:43:14.426Z,98120.09
2019-03-28T20:45:44.038Z,98115.66
2019-03-28T20:48:13.636Z,98119.83
2019-03-28T20:50:43.401Z,98124.52
2019-03-28T20:53:13.059Z,98125.25
2019-03-28T20:55:42.691Z,98124.08
2019-03-28T20:58:12.273Z,98125.49
2019-03-28T21:00:49.068Z,98133.30
2019-03-28T21:03:18.838Z,98131.05
2019-03-28T21:05:48.531Z,98128.70
2019-03-28T21:08:18.184Z,98128.94
2019-03-28T21:10:47.807Z,98133.79
2019-03-28T21:13:17.390Z,98136.73
2019-03-28T21:15:47.088Z,98145.20
2019-03-28T21:18:16.772Z,98141.20
2019-03-28T21:20:46.453Z,98149.61
2019-03-28T21:23:16.057Z,98147.88
2019-03-28T21:25:45.682Z,98147.16
2019-03-28T21:28:15.302Z,98145.76
2019-03-28T21:30:47.540Z,98148.04
2019-03-28T21:33:16.271Z,98143.45
2019-03-28T21:35:45.854Z,98144.52
2019-03-28T21:38:16.304Z,98150.08
2019-03-28T21:40:46.881Z,98144.45
2019-03-28T21:43:16.469Z,98152.40
2019-03-28T21:45:46.086Z,98154.78
2019-03-28T21:48:16.914Z,98158.86
2019-03-28T21:50:46.774Z,98159.56
2019-03-28T21:53:16.400Z,98162.98
2019-03-28T21:55:54.984Z,98158.42
2019-03-28T21:58:17.337Z,98162.63
2019-03-28T22:00:47.021Z,98161.77
2019-03-28T22:03:16.996Z,98157.78
2019-03-28T22:05:46.808Z,98160.30
2019-03-28T22:08:16.413Z,98159.69
2019-03-28T22:10:46.003Z,98154.05
2019-03-28T22:13:15.620Z,98163.95
2019-03-28T22:15:45.313Z,98157.59
2019-03-28T22:18:14.909Z,98160.97
2019-03-28T22:20:44.494Z,98160.11
2019-03-28T22:23:14.356Z,98156.69
2019-03-28T22:25:43.938Z,98161.31
2019-03-28T22:28:13.618Z,98162.97
2019-03-28T22:30:43.241Z,98158.30
2019-03-28T22:33:12.832Z,98164.39
2019-03-28T22:35:42.446Z,98167.46
2019-03-28T22:38:12.035Z,98170.77
2019-03-28T22:40:43.794Z,98173.63
2019-03-28T22:43:12.990Z,98169.92
2019-03-28T22:45:43.812Z,98174.58
2019-03-28T22:48:13.537Z,98171.17
2019-03-28T22:50:43.296Z,98172.72
2019-03-28T22:53:12.983Z,98171.59
2019-03-28T22:55:42.677Z,98167.84
2019-03-28T22:58:12.266Z,98174.97
2019-03-28T23:00:49.167Z,98179.16
2019-03-28T23:03:18.931Z,98177.05
2019-03-28T23:05:48.593Z,98172.80
2019-03-28T23:08:18.179Z,98172.02
2019-03-28T23:10:48.083Z,98172.74
2019-03-28T23:13:17.756Z,98174.08
2019-03-28T23:15:47.437Z,98178.97
2019-03-28T23:18:17.028Z,98176.87
2019-03-28T23:20:46.638Z,98181.16
2019-03-28T23:23:16.253Z,98184.70
2019-03-28T23:25:45.867Z,98190.29
2019-03-28T23:28:15.459Z,98192.13
2019-03-28T23:30:45.064Z,98185.81
2019-03-28T23:33:14.678Z,98184.34
2019-03-28T23:35:44.267Z,98181.64
2019-03-28T23:38:13.878Z,98189.25
2019-03-28T23:40:43.464Z,98195.48
2019-03-28T23:43:13.195Z,98198.95
2019-03-28T23:45:43.200Z,98196.76
2019-03-28T23:48:12.830Z,98193.75
2019-03-28T23:50:42.425Z,98196.34
2019-03-28T23:53:12.005Z,98193.33
2019-03-28T23:55:41.617Z,98193.54
2019-03-28T23:58:11.233Z,98195.35
